createdAt,value
2018-07-07T00:01:07.862Z,17.50
2018-07-07T00:03:37.353Z,17.40
2018-07-07T00:06:06.006Z,17.30
2018-07-07T00:08:34.738Z,17.10
2018-07-07T00:11:03.540Z,16.90
2018-07-07T00:13:32.320Z,16.80
2018-07-07T00:16:00.983Z,16.80
2018-07-07T00:18:29.580Z,16.80
2018-07-07T00:20:58.193Z,16.70
2018-07-07T00:23:26.854Z,16.60
2018-07-07T00:25:55.465Z,16.60
2018-07-07T00:28:24.165Z,16.70
2018-07-07T00:30:52.820Z,16.80
2018-07-07T00:33:21.420Z,16.80
2018-07-07T00:35:50.038Z,16.80
2018-07-07T00:38:18.864Z,16.80
2018-07-07T00:40:47.537Z,16.80
2018-07-07T00:43:16.162Z,16.80
2018-07-07T00:45:44.728Z,16.80
2018-07-07T00:48:13.363Z,16.80
2018-07-07T00:50:42.045Z,16.80
2018-07-07T00:53:10.645Z,16.90
2018-07-07T00:55:39.216Z,16.90
2018-07-07T00:58:07.816Z,16.90
2018-07-07T01:00:52.497Z,16.90
2018-07-07T01:03:22.042Z,16.90
2018-07-07T01:05:51.150Z,16.90
2018-07-07T01:08:19.734Z,16.80
2018-07-07T01:10:48.415Z,16.80
2018-07-07T01:15:45.420Z,16.80
2018-07-07T01:18:14.107Z,16.80
2018-07-07T01:20:42.703Z,16.80
2018-07-07T01:23:11.283Z,16.80
2018-07-07T01:25:39.860Z,16.60
2018-07-07T01:28:08.475Z,16.50
2018-07-07T01:30:37.027Z,16.40
2018-07-07T01:33:05.652Z,16.30
2018-07-07T01:35:34.219Z,16.40
2018-07-07T01:38:02.818Z,16.40
2018-07-07T01:40:31.423Z,16.40
2018-07-07T01:43:00.007Z,16.40
2018-07-07T01:45:28.662Z,16.30
2018-07-07T01:47:57.265Z,16.20
2018-07-07T01:50:25.835Z,16.10
2018-07-07T01:52:54.430Z,16.00
2018-07-07T01:55:23.095Z,15.90
2018-07-07T01:57:51.690Z,15.90
2018-07-07T02:00:20.331Z,15.90
2018-07-07T02:02:48.943Z,15.90
2018-07-07T02:05:17.641Z,15.80
2018-07-07T02:07:46.283Z,15.90
2018-07-07T02:10:15.019Z,16.00
2018-07-07T02:12:43.662Z,16.00
2018-07-07T02:15:12.360Z,16.00
2018-07-07T02:20:09.593Z,16.00
2018-07-07T02:22:38.310Z,16.00
2018-07-07T02:25:07.013Z,15.90
2018-07-07T02:27:35.676Z,15.80
2018-07-07T02:30:04.783Z,15.80
2018-07-07T02:32:33.543Z,15.90
2018-07-07T02:35:02.121Z,16.00
2018-07-07T02:37:30.813Z,16.00
2018-07-07T02:39:59.410Z,16.00
2018-07-07T02:42:28.007Z,15.90
2018-07-07T02:44:56.571Z,15.90
2018-07-07T02:47:25.153Z,15.90
2018-07-07T02:49:53.706Z,15.90
2018-07-07T02:52:22.317Z,16.00
2018-07-07T02:54:50.911Z,16.10
2018-07-07T02:57:19.471Z,16.20
2018-07-07T02:59:48.110Z,16.30
2018-07-07T03:02:16.724Z,16.30
2018-07-07T03:04:45.356Z,16.30
2018-07-07T03:07:14.004Z,16.30
2018-07-07T03:09:42.666Z,16.30
2018-07-07T03:12:11.306Z,16.30
2018-07-07T03:14:39.898Z,16.20
2018-07-07T03:17:08.467Z,16.10
2018-07-07T03:19:37.063Z,16.10
2018-07-07T03:22:05.679Z,16.00
2018-07-07T03:24:34.254Z,16.00
2018-07-07T03:27:02.866Z,16.00
2018-07-07T03:29:31.453Z,16.00
2018-07-07T03:32:00.045Z,16.00
2018-07-07T03:34:28.671Z,16.00
2018-07-07T03:36:57.263Z,16.00
2018-07-07T03:39:25.886Z,15.90
2018-07-07T03:41:54.493Z,15.90
2018-07-07T03:44:23.085Z,15.90
2018-07-07T03:46:51.681Z,16.10
2018-07-07T03:49:20.300Z,16.20
2018-07-07T03:51:48.936Z,16.30
2018-07-07T03:54:17.497Z,16.20
2018-07-07T03:56:46.079Z,16.10
2018-07-07T03:59:14.793Z,16.00
2018-07-07T04:01:43.586Z,16.00
2018-07-07T04:04:12.251Z,16.00
2018-07-07T04:06:40.861Z,16.00
2018-07-07T04:09:09.510Z,15.90
2018-07-07T04:11:38.146Z,15.90
2018-07-07T04:14:06.836Z,15.90
2018-07-07T04:16:35.471Z,15.90
2018-07-07T04:19:04.123Z,16.00
2018-07-07T04:21:32.725Z,15.80
2018-07-07T04:24:01.339Z,15.80
2018-07-07T04:26:29.951Z,15.70
2018-07-07T04:28:58.581Z,15.60
2018-07-07T04:31:27.159Z,15.50
2018-07-07T04:33:55.784Z,15.60
2018-07-07T04:36:24.376Z,15.60
2018-07-07T04:38:52.951Z,15.60
2018-07-07T04:41:21.506Z,15.80
2018-07-07T04:43:50.103Z,15.90
2018-07-07T04:46:18.725Z,16.20
2018-07-07T04:48:47.431Z,16.40
2018-07-07T04:51:16.184Z,16.70
2018-07-07T04:53:44.889Z,17.00
2018-07-07T04:56:13.581Z,17.50
2018-07-07T04:58:42.261Z,17.80
2018-07-07T05:01:10.978Z,18.20
2018-07-07T05:03:39.728Z,18.50
2018-07-07T05:06:08.345Z,18.70
2018-07-07T05:08:37.007Z,18.70
2018-07-07T05:11:05.653Z,19.10
2018-07-07T05:13:34.298Z,19.40
2018-07-07T05:16:02.914Z,19.50
2018-07-07T05:18:31.626Z,19.70
2018-07-07T05:21:00.270Z,19.90
2018-07-07T05:23:28.934Z,20.00
2018-07-07T05:25:57.598Z,20.30
2018-07-07T05:28:26.269Z,20.50
2018-07-07T05:30:54.900Z,20.60
2018-07-07T05:33:23.501Z,20.80
2018-07-07T05:35:52.159Z,20.90
2018-07-07T05:38:20.829Z,20.90
2018-07-07T05:40:49.579Z,21.00
2018-07-07T05:43:18.203Z,21.40
2018-07-07T05:45:46.839Z,21.50
2018-07-07T05:48:15.439Z,21.60
2018-07-07T05:50:43.996Z,21.60
2018-07-07T05:53:12.634Z,21.70
2018-07-07T05:55:46.886Z,21.90
2018-07-07T05:58:15.493Z,22.20
2018-07-07T06:00:44.091Z,22.40
2018-07-07T06:03:12.731Z,22.80
2018-07-07T06:05:41.338Z,23.20
2018-07-07T06:08:09.998Z,23.70
2018-07-07T06:10:38.686Z,23.80
2018-07-07T06:13:07.379Z,24.10
2018-07-07T06:18:04.709Z,24.30
2018-07-07T06:20:33.648Z,24.30
2018-07-07T06:23:02.360Z,24.20
2018-07-07T06:25:30.993Z,24.30
2018-07-07T06:27:59.981Z,24.60
2018-07-07T06:30:28.900Z,25.00
2018-07-07T06:32:57.607Z,25.20
2018-07-07T06:35:26.700Z,25.10
2018-07-07T06:37:56.877Z,25.20
2018-07-07T06:40:25.548Z,25.30
2018-07-07T06:42:54.384Z,25.50
2018-07-07T06:45:23.519Z,25.70
2018-07-07T06:47:52.281Z,25.60
2018-07-07T06:50:20.907Z,25.80
2018-07-07T06:52:49.594Z,25.80
2018-07-07T06:55:18.243Z,26.00
2018-07-07T06:57:46.944Z,26.10
2018-07-07T07:00:15.749Z,26.00
2018-07-07T07:02:44.679Z,25.90
2018-07-07T07:05:13.291Z,26.00
2018-07-07T07:07:42.019Z,26.20
2018-07-07T07:10:10.747Z,26.50
2018-07-07T07:12:39.496Z,26.60
2018-07-07T07:15:08.302Z,26.60
2018-07-07T07:17:36.951Z,26.70
2018-07-07T07:20:05.724Z,26.80
2018-07-07T07:22:35.226Z,27.10
2018-07-07T07:25:03.956Z,27.10
2018-07-07T07:27:32.674Z,27.10
2018-07-07T07:30:01.286Z,27.20
2018-07-07T07:32:30.359Z,27.40
2018-07-07T07:34:59.069Z,27.40
2018-07-07T07:37:27.681Z,27.60
2018-07-07T07:39:56.748Z,27.60
2018-07-07T07:42:25.336Z,28.10
2018-07-07T07:44:54.597Z,28.60
2018-07-07T07:47:23.271Z,28.50
2018-07-07T07:49:51.876Z,28.30
2018-07-07T07:52:20.464Z,28.80
2018-07-07T07:54:49.139Z,28.90
2018-07-07T07:57:17.798Z,28.90
2018-07-07T07:59:46.423Z,29.20
2018-07-07T08:02:15.118Z,28.90
2018-07-07T08:04:43.853Z,29.00
2018-07-07T08:07:12.539Z,29.30
2018-07-07T08:09:41.149Z,29.40
2018-07-07T08:12:09.768Z,29.20
2018-07-07T08:14:38.469Z,29.10
2018-07-07T08:17:07.261Z,29.40
2018-07-07T08:19:35.988Z,29.90
2018-07-07T08:22:04.728Z,30.00
2018-07-07T08:24:33.418Z,30.20
2018-07-07T08:27:02.068Z,30.20
2018-07-07T08:29:30.751Z,30.20
2018-07-07T08:31:59.426Z,30.40
2018-07-07T08:34:28.072Z,30.10
2018-07-07T08:36:57.449Z,30.10
2018-07-07T08:39:26.123Z,30.20
2018-07-07T08:41:54.793Z,30.30
2018-07-07T08:44:23.459Z,30.20
2018-07-07T08:46:52.192Z,30.10
2018-07-07T08:49:20.905Z,30.00
2018-07-07T08:51:49.636Z,30.10
2018-07-07T08:54:18.312Z,30.20
2018-07-07T08:56:47.397Z,30.30
2018-07-07T08:59:16.060Z,30.50
2018-07-07T09:04:13.226Z,30.60
2018-07-07T09:09:10.778Z,30.70
2018-07-07T09:11:40.203Z,31.00
2018-07-07T09:14:08.850Z,31.10
2018-07-07T09:16:37.558Z,31.20
2018-07-07T09:19:06.218Z,31.60
2018-07-07T09:21:34.875Z,31.80
2018-07-07T09:24:03.603Z,31.40
2018-07-07T09:26:32.246Z,31.30
2018-07-07T09:29:00.853Z,31.30
2018-07-07T09:31:29.438Z,31.40
2018-07-07T09:33:58.083Z,31.30
2018-07-07T09:36:26.939Z,31.70
2018-07-07T09:38:55.627Z,32.10
2018-07-07T09:41:24.370Z,32.30
2018-07-07T09:43:53.058Z,32.30
2018-07-07T09:46:21.714Z,32.50
2018-07-07T09:48:50.359Z,32.20
2018-07-07T09:51:18.991Z,32.20
2018-07-07T09:53:47.641Z,32.60
2018-07-07T09:56:16.325Z,32.90
2018-07-07T09:58:44.995Z,33.10
2018-07-07T10:01:13.717Z,33.10
2018-07-07T10:03:42.368Z,33.30
2018-07-07T10:06:11.052Z,33.10
2018-07-07T10:08:39.771Z,32.90
2018-07-07T10:11:08.413Z,33.20
2018-07-07T10:13:37.073Z,33.50
2018-07-07T10:16:05.693Z,33.40
2018-07-07T10:18:34.424Z,33.70
2018-07-07T10:21:03.207Z,33.70
2018-07-07T10:23:31.885Z,33.80
2018-07-07T10:26:00.536Z,33.90
2018-07-07T10:28:29.381Z,34.40
2018-07-07T10:30:57.997Z,34.40
2018-07-07T10:33:26.702Z,34.60
2018-07-07T10:35:55.347Z,34.60
2018-07-07T10:38:23.989Z,34.50
2018-07-07T10:40:52.616Z,34.50
2018-07-07T10:43:21.250Z,34.40
2018-07-07T10:45:50.094Z,34.20
2018-07-07T10:48:18.525Z,34.50
2018-07-07T10:50:47.136Z,34.60
2018-07-07T10:53:15.763Z,34.70
2018-07-07T10:55:45.363Z,35.00
2018-07-07T10:58:14.061Z,34.80
2018-07-07T11:00:42.721Z,34.90
2018-07-07T11:03:11.400Z,35.00
2018-07-07T11:05:39.987Z,34.80
2018-07-07T11:08:10.846Z,34.60
2018-07-07T11:10:39.531Z,34.50
2018-07-07T11:13:08.184Z,33.90
2018-07-07T11:15:36.872Z,34.00
2018-07-07T11:18:05.631Z,34.50
2018-07-07T11:20:39.844Z,33.80
2018-07-07T11:23:08.522Z,33.30
2018-07-07T11:25:37.282Z,33.40
2018-07-07T11:28:05.972Z,33.70
2018-07-07T11:30:34.620Z,34.10
2018-07-07T11:33:05.094Z,34.30
2018-07-07T11:35:33.789Z,34.50
2018-07-07T11:38:03.476Z,34.70
2018-07-07T11:40:32.452Z,34.50
2018-07-07T11:43:01.774Z,33.70
2018-07-07T11:45:30.667Z,33.70
2018-07-07T11:47:59.561Z,34.30
2018-07-07T11:50:28.443Z,34.40
2018-07-07T11:52:57.167Z,34.10
2018-07-07T11:55:25.938Z,34.70
2018-07-07T11:57:54.550Z,35.20
2018-07-07T12:00:23.343Z,35.60
2018-07-07T12:02:52.132Z,35.60
2018-07-07T12:05:20.779Z,35.30
2018-07-07T12:08:00.712Z,35.80
2018-07-07T12:10:18.089Z,36.10
2018-07-07T12:12:46.791Z,35.70
2018-07-07T12:15:15.786Z,35.90
2018-07-07T12:17:44.535Z,35.50
2018-07-07T12:20:13.334Z,35.70
2018-07-07T12:22:42.101Z,35.90
2018-07-07T12:25:10.719Z,36.30
2018-07-07T12:27:39.399Z,35.50
2018-07-07T12:30:08.139Z,35.80
2018-07-07T12:32:36.877Z,35.30
2018-07-07T12:35:05.883Z,35.10
2018-07-07T12:37:34.593Z,35.60
2018-07-07T12:40:04.431Z,35.80
2018-07-07T12:42:33.199Z,35.60
2018-07-07T12:45:02.022Z,35.20
2018-07-07T12:47:30.676Z,35.50
2018-07-07T12:49:59.386Z,35.50
2018-07-07T12:52:28.084Z,35.80
2018-07-07T12:54:56.739Z,36.00
2018-07-07T12:57:25.471Z,36.40
2018-07-07T12:59:54.159Z,36.50
2018-07-07T13:02:22.836Z,36.50
2018-07-07T13:04:52.403Z,35.80
2018-07-07T13:07:21.144Z,34.60
2018-07-07T13:09:56.369Z,33.60
2018-07-07T13:12:25.072Z,32.90
2018-07-07T13:14:53.880Z,33.00
2018-07-07T13:17:29.059Z,33.40
2018-07-07T13:19:58.343Z,33.90
2018-07-07T13:22:32.628Z,34.60
2018-07-07T13:25:01.411Z,34.50
2018-07-07T13:27:32.421Z,33.90
2018-07-07T13:30:01.181Z,33.80
2018-07-07T13:32:30.846Z,34.00
2018-07-07T13:34:59.562Z,34.00
2018-07-07T13:37:28.301Z,34.00
2018-07-07T13:39:57.098Z,34.00
2018-07-07T13:42:25.784Z,34.40
2018-07-07T13:45:00.229Z,34.60
2018-07-07T13:47:29.597Z,34.30
2018-07-07T13:49:59.629Z,33.90
2018-07-07T13:52:28.316Z,33.50
2018-07-07T13:54:57.169Z,33.30
2018-07-07T13:57:25.899Z,33.00
2018-07-07T13:59:54.619Z,32.50
2018-07-07T14:02:23.322Z,32.20
2018-07-07T14:04:52.049Z,31.90
2018-07-07T14:07:20.804Z,32.00
2018-07-07T14:09:49.497Z,32.10
2018-07-07T14:12:18.239Z,32.00
2018-07-07T14:14:47.906Z,32.00
2018-07-07T14:17:16.730Z,31.80
2018-07-07T14:19:45.359Z,31.30
2018-07-07T14:22:18.831Z,30.80
2018-07-07T14:24:47.567Z,30.60
2018-07-07T14:27:16.889Z,30.20
2018-07-07T14:29:45.951Z,30.00
2018-07-07T14:32:14.626Z,29.80
2018-07-07T14:34:43.362Z,29.60
2018-07-07T14:37:12.424Z,29.60
2018-07-07T14:39:59.827Z,29.60
2018-07-07T14:43:00.077Z,29.60
2018-07-07T14:45:29.998Z,29.70
2018-07-07T14:48:01.738Z,29.50
2018-07-07T14:50:30.562Z,29.30
2018-07-07T14:52:59.262Z,29.20
2018-07-07T14:55:29.299Z,29.20
2018-07-07T15:00:27.506Z,29.30
2018-07-07T15:02:57.229Z,29.30
2018-07-07T15:05:25.936Z,29.30
2018-07-07T15:07:54.572Z,29.20
2018-07-07T15:10:23.271Z,29.10
2018-07-07T15:12:52.068Z,29.00
2018-07-07T15:15:20.774Z,28.90
2018-07-07T15:17:49.581Z,28.80
2018-07-07T15:20:18.354Z,28.80
2018-07-07T15:22:47.131Z,28.80
2018-07-07T15:25:15.801Z,28.70
2018-07-07T15:27:44.497Z,28.60
2018-07-07T15:30:13.371Z,28.50
2018-07-07T15:32:42.066Z,28.50
2018-07-07T15:35:10.821Z,28.40
2018-07-07T15:37:39.456Z,28.30
2018-07-07T15:40:08.294Z,28.20
2018-07-07T15:42:36.981Z,28.10
2018-07-07T15:45:05.738Z,28.00
2018-07-07T15:47:34.398Z,27.80
2018-07-07T15:50:03.637Z,27.50
2018-07-07T15:52:37.899Z,27.30
2018-07-07T15:55:07.487Z,27.10
2018-07-07T15:57:36.284Z,27.10
2018-07-07T16:00:07.443Z,26.90
2018-07-07T16:02:36.079Z,26.80
2018-07-07T16:05:05.004Z,26.40
2018-07-07T16:07:33.697Z,26.00
2018-07-07T16:10:02.859Z,25.60
2018-07-07T16:12:31.577Z,25.30
2018-07-07T16:15:00.244Z,25.10
2018-07-07T16:17:28.947Z,24.80
2018-07-07T16:19:57.709Z,24.60
2018-07-07T16:22:26.386Z,24.50
2018-07-07T16:24:55.099Z,24.40
2018-07-07T16:27:23.716Z,24.30
2018-07-07T16:29:52.381Z,24.20
2018-07-07T16:32:26.681Z,23.80
2018-07-07T16:34:55.812Z,23.40
2018-07-07T16:37:24.591Z,23.00
2018-07-07T16:39:53.278Z,22.60
2018-07-07T16:42:22.787Z,22.40
2018-07-07T16:44:52.104Z,22.20
2018-07-07T16:47:20.846Z,22.10
2018-07-07T16:49:50.626Z,22.10
2018-07-07T16:52:19.398Z,22.00
2018-07-07T16:54:48.665Z,21.80
2018-07-07T16:57:17.425Z,21.60
2018-07-07T16:59:46.197Z,21.30
2018-07-07T17:02:14.946Z,21.40
2018-07-07T17:04:43.724Z,21.60
2018-07-07T17:07:12.527Z,21.70
2018-07-07T17:09:41.760Z,21.80
2018-07-07T17:12:10.621Z,21.90
2018-07-07T17:14:39.345Z,22.00
2018-07-07T17:17:09.746Z,22.00
2018-07-07T17:19:38.632Z,22.00
2018-07-07T17:22:07.729Z,21.80
2018-07-07T17:24:36.575Z,21.60
2018-07-07T17:27:05.251Z,21.70
2018-07-07T17:29:33.991Z,21.60
2018-07-07T17:32:03.072Z,21.40
2018-07-07T17:34:31.819Z,21.30
2018-07-07T17:37:00.638Z,21.30
2018-07-07T17:39:29.619Z,21.20
2018-07-07T17:41:58.339Z,21.30
2018-07-07T17:44:27.043Z,21.50
2018-07-07T17:46:55.940Z,21.40
2018-07-07T17:49:24.848Z,21.30
2018-07-07T17:51:53.686Z,21.20
2018-07-07T17:54:22.406Z,21.20
2018-07-07T17:56:51.259Z,21.10
2018-07-07T17:59:21.563Z,21.10
2018-07-07T18:01:50.446Z,21.20
2018-07-07T18:04:19.218Z,21.20
2018-07-07T18:06:47.913Z,21.20
2018-07-07T18:09:16.631Z,21.20
2018-07-07T18:11:45.367Z,21.10
2018-07-07T18:16:45.839Z,21.10
2018-07-07T18:19:14.569Z,21.20
2018-07-07T18:21:43.724Z,21.30
2018-07-07T18:24:12.452Z,21.20
2018-07-07T18:26:41.152Z,21.10
2018-07-07T18:29:09.824Z,21.00
2018-07-07T18:31:38.464Z,20.90
2018-07-07T18:34:07.129Z,20.80
2018-07-07T18:36:35.791Z,20.80
2018-07-07T18:41:33.471Z,20.80
2018-07-07T18:46:30.479Z,20.50
2018-07-07T18:48:59.225Z,20.50
2018-07-07T18:51:27.821Z,20.50
2018-07-07T18:53:56.471Z,20.50
2018-07-07T18:58:53.621Z,20.60
2018-07-07T19:01:22.271Z,20.60
2018-07-07T19:03:50.911Z,20.50
2018-07-07T19:06:19.558Z,20.40
2018-07-07T19:08:48.284Z,20.30
2018-07-07T19:13:46.294Z,20.10
2018-07-07T19:16:14.936Z,20.00
2018-07-07T19:18:43.563Z,19.90
2018-07-07T19:21:17.729Z,19.80
2018-07-07T19:23:52.033Z,19.80
2018-07-07T19:26:28.042Z,19.70
2018-07-07T19:28:56.846Z,19.60
2018-07-07T19:31:25.456Z,19.60
2018-07-07T19:34:59.428Z,19.50
2018-07-07T19:37:28.245Z,19.50
2018-07-07T19:39:56.918Z,19.50
2018-07-07T19:42:27.418Z,19.40
2018-07-07T19:44:56.086Z,19.30
2018-07-07T19:47:24.755Z,19.30
2018-07-07T19:49:53.436Z,19.40
2018-07-07T19:52:22.118Z,19.40
2018-07-07T19:54:50.699Z,19.40
2018-07-07T19:57:19.359Z,19.40
2018-07-07T19:59:47.952Z,19.30
2018-07-07T20:02:16.576Z,19.20
2018-07-07T20:04:45.218Z,19.20
2018-07-07T20:07:14.618Z,19.30
2018-07-07T20:09:43.353Z,19.30
2018-07-07T20:12:12.021Z,19.20
2018-07-07T20:14:40.635Z,19.10
2018-07-07T20:17:12.527Z,19.00
2018-07-07T20:21:58.222Z,18.90
2018-07-07T20:27:17.418Z,19.10
2018-07-07T20:29:46.089Z,19.20
2018-07-07T20:32:20.883Z,19.20
2018-07-07T20:37:18.116Z,19.20
2018-07-07T20:39:46.815Z,19.10
2018-07-07T20:42:15.521Z,19.00
2018-07-07T20:47:12.665Z,19.10
2018-07-07T20:49:41.832Z,19.00
2018-07-07T20:52:10.560Z,18.80
2018-07-07T20:54:44.205Z,18.60
2018-07-07T20:57:12.915Z,18.50
2018-07-07T20:59:41.601Z,18.40
2018-07-07T21:02:10.292Z,18.50
2018-07-07T21:04:38.839Z,18.40
2018-07-07T21:07:07.924Z,18.40
2018-07-07T21:09:36.595Z,18.30
2018-07-07T21:12:05.398Z,18.30
2018-07-07T21:14:34.117Z,18.20
2018-07-07T21:17:02.781Z,18.20
2018-07-07T21:19:31.468Z,18.10
2018-07-07T21:22:00.082Z,18.10
2018-07-07T21:24:28.725Z,18.10
2018-07-07T21:26:57.371Z,18.10
2018-07-07T21:29:26.113Z,18.10
2018-07-07T21:31:54.706Z,18.10
2018-07-07T21:34:23.398Z,18.00
2018-07-07T21:36:52.050Z,18.00
2018-07-07T21:39:20.711Z,18.00
2018-07-07T21:41:49.344Z,18.00
2018-07-07T21:44:18.105Z,17.90
2018-07-07T21:46:46.866Z,17.90
2018-07-07T21:49:15.691Z,17.80
2018-07-07T21:51:44.383Z,17.70
2018-07-07T21:54:12.984Z,17.80
2018-07-07T21:56:41.562Z,17.70
2018-07-07T21:59:15.811Z,17.70
2018-07-07T22:01:57.502Z,17.70
2018-07-07T22:04:33.987Z,17.70
2018-07-07T22:07:12.611Z,17.60
2018-07-07T22:09:42.114Z,17.60
2018-07-07T22:12:10.798Z,17.60
2018-07-07T22:17:13.446Z,17.50
2018-07-07T22:19:42.085Z,17.60
2018-07-07T22:22:11.345Z,17.60
2018-07-07T22:24:41.143Z,17.60
2018-07-07T22:27:11.186Z,17.50
2018-07-07T22:29:39.838Z,17.50
2018-07-07T22:32:13.980Z,17.50
2018-07-07T22:34:43.691Z,17.40
2018-07-07T22:37:12.493Z,17.40
2018-07-07T22:42:12.262Z,17.30
2018-07-07T22:44:42.051Z,17.30
2018-07-07T22:47:10.735Z,17.20
2018-07-07T22:52:08.880Z,17.10
2018-07-07T22:54:37.588Z,17.00
2018-07-07T22:57:06.376Z,16.90
2018-07-07T22:59:35.004Z,16.80
2018-07-07T23:02:03.755Z,16.80
2018-07-07T23:04:32.348Z,16.90
2018-07-07T23:07:00.948Z,17.00
2018-07-07T23:09:29.734Z,17.00
2018-07-07T23:11:58.361Z,17.00
2018-07-07T23:14:27.026Z,17.30
2018-07-07T23:17:00.598Z,17.40
2018-07-07T23:19:29.344Z,17.40
2018-07-07T23:21:58.196Z,17.40
2018-07-07T23:24:26.864Z,17.40
2018-07-07T23:26:55.633Z,17.30
2018-07-07T23:29:24.228Z,17.10
2018-07-07T23:31:52.935Z,17.10
2018-07-07T23:34:21.674Z,17.00
2018-07-07T23:36:50.298Z,16.90
2018-07-07T23:39:19.033Z,16.80
2018-07-07T23:41:47.758Z,16.70
2018-07-07T23:44:16.419Z,16.80
2018-07-07T23:49:13.511Z,16.60
2018-07-07T23:51:42.198Z,16.40
2018-07-07T23:54:10.825Z,16.40
2018-07-07T23:56:40.109Z,16.30
2018-07-07T23:59:08.768Z,16.20
